createdAt,value
2023-03-02T00:01:46.570Z,4.68
2023-03-02T00:04:20.796Z,5.70
2023-03-02T00:06:49.083Z,4.38
2023-03-02T00:09:16.126Z,4.18
2023-03-02T00:11:43.131Z,5.38
2023-03-02T00:14:09.864Z,5.10
2023-03-02T00:16:36.628Z,5.55
2023-03-02T00:19:03.501Z,4.88
2023-03-02T00:21:31.725Z,4.50
2023-03-02T00:23:58.561Z,5.22
2023-03-02T00:26:25.302Z,4.60
2023-03-02T00:28:52.160Z,4.15
2023-03-02T00:31:18.968Z,4.15
2023-03-02T00:33:45.742Z,5.50
2023-03-02T00:36:20.544Z,5.50
2023-03-02T00:38:48.231Z,5.15
2023-03-02T00:41:16.483Z,5.82
2023-03-02T00:43:43.375Z,3.88
2023-03-02T00:46:24.489Z,4.45
2023-03-02T00:48:52.226Z,4.47
2023-03-02T00:51:19.118Z,4.85
2023-03-02T00:53:46.492Z,5.25
2023-03-02T00:56:13.341Z,5.50
2023-03-02T00:58:45.593Z,4.97
2023-03-02T01:01:13.631Z,4.82
2023-03-02T01:03:45.438Z,4.13
2023-03-02T01:06:18.772Z,4.90
2023-03-02T01:08:46.382Z,4.65
2023-03-02T01:11:15.532Z,6.03
2023-03-02T01:13:42.569Z,4.60
2023-03-02T01:16:09.594Z,5.00
2023-03-02T01:18:38.744Z,4.00
2023-03-02T01:21:10.651Z,5.65
2023-03-02T01:23:37.432Z,3.90
2023-03-02T01:26:04.733Z,4.60
2023-03-02T01:28:32.443Z,5.13
2023-03-02T01:31:01.340Z,4.82
2023-03-02T01:33:28.368Z,4.88
2023-03-02T01:35:55.021Z,4.55
2023-03-02T01:38:21.783Z,5.25
2023-03-02T01:40:48.395Z,4.18
2023-03-02T01:43:16.521Z,4.65
2023-03-02T01:45:46.334Z,4.10
2023-03-02T01:48:20.330Z,4.13
2023-03-02T01:50:47.835Z,4.05
2023-03-02T01:53:16.451Z,4.82
2023-03-02T01:55:45.973Z,5.05
2023-03-02T02:00:42.112Z,4.55
2023-03-02T02:03:14.382Z,3.90
2023-03-02T02:05:46.477Z,4.60
2023-03-02T02:08:13.863Z,5.38
2023-03-02T02:10:40.819Z,5.10
2023-03-02T02:13:11.587Z,4.78
2023-03-02T02:15:40.327Z,5.85
2023-03-02T02:18:07.736Z,4.97
2023-03-02T02:20:44.904Z,3.78
2023-03-02T02:23:48.041Z,4.35
2023-03-02T02:26:31.498Z,4.18
2023-03-02T02:29:00.600Z,4.97
2023-03-02T02:31:37.071Z,4.20
2023-03-02T02:34:15.890Z,4.05
2023-03-02T02:36:48.109Z,5.57
2023-03-02T02:39:31.171Z,4.05
2023-03-02T02:42:02.886Z,4.50
2023-03-02T02:44:30.798Z,3.70
2023-03-02T02:46:57.652Z,3.55
2023-03-02T02:49:32.229Z,4.38
2023-03-02T02:51:59.872Z,4.00
2023-03-02T02:54:28.428Z,3.38
2023-03-02T02:56:57.030Z,3.93
2023-03-02T02:59:28.983Z,4.63
2023-03-02T03:02:00.405Z,4.32
2023-03-02T03:04:30.784Z,4.13
2023-03-02T03:07:01.284Z,4.68
2023-03-02T03:09:29.545Z,4.97
2023-03-02T03:12:08.499Z,7.35
2023-03-02T03:14:39.191Z,3.95
2023-03-02T03:17:13.717Z,3.70
2023-03-02T03:19:52.533Z,4.93
2023-03-02T03:22:19.966Z,5.82
2023-03-02T03:24:49.079Z,4.72
2023-03-02T03:27:17.512Z,4.00
2023-03-02T03:29:48.324Z,3.95
2023-03-02T03:32:18.145Z,4.53
2023-03-02T03:34:45.742Z,4.43
2023-03-02T03:37:20.259Z,4.03
2023-03-02T03:39:47.391Z,4.22
2023-03-02T03:42:15.767Z,4.53
2023-03-02T03:44:42.901Z,4.10
2023-03-02T03:47:09.690Z,4.25
2023-03-02T03:49:37.187Z,5.45
2023-03-02T03:52:05.775Z,3.92
2023-03-02T03:54:32.572Z,3.95
2023-03-02T03:56:59.527Z,3.90
2023-03-02T03:59:27.233Z,3.78
2023-03-02T04:02:03.023Z,3.92
2023-03-02T04:04:41.767Z,4.15
2023-03-02T04:07:15.204Z,4.80
2023-03-02T04:09:43.632Z,3.83
2023-03-02T04:14:42.975Z,3.95
2023-03-02T04:17:10.957Z,4.20
2023-03-02T04:19:41.856Z,5.82
2023-03-02T04:22:09.661Z,4.85
2023-03-02T04:24:36.538Z,4.93
2023-03-02T04:27:04.619Z,4.43
2023-03-02T04:29:32.696Z,6.65
2023-03-02T04:32:01.423Z,5.23
2023-03-02T04:34:29.836Z,5.25
2023-03-02T04:36:56.668Z,4.53
2023-03-02T04:39:23.831Z,3.47
2023-03-02T04:41:52.213Z,6.53
2023-03-02T04:44:19.769Z,4.28
2023-03-02T04:46:47.437Z,8.07
2023-03-02T04:49:16.206Z,4.78
2023-03-02T04:51:45.590Z,5.18
2023-03-02T04:54:20.808Z,4.90
2023-03-02T04:56:48.722Z,6.50
2023-03-02T04:59:16.981Z,4.50
2023-03-02T05:01:44.626Z,4.25
2023-03-02T05:04:12.543Z,4.85
2023-03-02T05:06:39.260Z,6.13
2023-03-02T05:09:06.591Z,4.47
2023-03-02T05:11:34.524Z,5.18
2023-03-02T05:14:03.695Z,5.10
2023-03-02T05:16:33.269Z,5.18
2023-03-02T05:19:01.953Z,3.85
2023-03-02T05:21:28.720Z,5.03
2023-03-02T05:23:55.307Z,5.25
2023-03-02T05:26:22.421Z,4.68
2023-03-02T05:28:49.187Z,5.00
2023-03-02T05:31:43.124Z,5.38
2023-03-02T05:34:12.691Z,4.13
2023-03-02T05:39:07.228Z,5.03
2023-03-02T05:41:34.308Z,5.20
2023-03-02T05:44:01.484Z,4.85
2023-03-02T05:46:28.460Z,5.63
2023-03-02T05:48:55.173Z,5.40
2023-03-02T05:51:22.039Z,5.75
2023-03-02T05:53:48.986Z,5.82
2023-03-02T05:56:15.752Z,5.65
2023-03-02T05:58:42.463Z,5.20
2023-03-02T06:01:13.529Z,5.13
2023-03-02T06:03:42.059Z,4.32
2023-03-02T06:06:08.745Z,5.00
2023-03-02T06:08:40.884Z,5.25
2023-03-02T06:11:08.663Z,5.03
2023-03-02T06:13:37.587Z,5.80
2023-03-02T06:16:05.334Z,4.97
2023-03-02T06:18:33.382Z,5.03
2023-03-02T06:21:00.164Z,4.50
2023-03-02T06:23:26.881Z,7.93
2023-03-02T06:25:53.678Z,5.95
2023-03-02T06:28:20.588Z,5.88
2023-03-02T06:30:52.229Z,7.45
2023-03-02T06:33:21.321Z,6.20
2023-03-02T06:35:48.458Z,6.03
2023-03-02T06:38:15.199Z,5.18
2023-03-02T06:40:41.961Z,5.63
2023-03-02T06:43:08.703Z,6.95
2023-03-02T06:45:35.554Z,5.35
2023-03-02T06:48:02.605Z,6.05
2023-03-02T06:50:29.661Z,6.13
2023-03-02T06:52:56.761Z,6.25
2023-03-02T06:55:23.853Z,6.43
2023-03-02T06:57:50.936Z,5.20
2023-03-02T07:00:25.836Z,5.88
2023-03-02T07:02:53.298Z,7.18
2023-03-02T07:05:20.493Z,6.25
2023-03-02T07:07:47.229Z,6.00
2023-03-02T07:10:14.211Z,6.72
2023-03-02T07:12:42.074Z,5.57
2023-03-02T07:15:12.200Z,5.93
2023-03-02T07:17:40.536Z,6.25
2023-03-02T07:20:08.563Z,6.32
2023-03-02T07:22:35.311Z,6.05
2023-03-02T07:25:02.051Z,5.75
2023-03-02T07:27:28.881Z,5.78
2023-03-02T07:29:55.673Z,6.75
2023-03-02T07:32:22.422Z,6.72
2023-03-02T07:34:49.219Z,7.47
2023-03-02T07:37:16.005Z,5.80
2023-03-02T07:39:42.619Z,6.07
2023-03-02T07:42:12.317Z,8.10
2023-03-02T07:44:41.312Z,6.63
2023-03-02T07:47:08.089Z,6.82
2023-03-02T07:49:35.612Z,6.55
2023-03-02T07:52:03.464Z,6.45
2023-03-02T07:54:31.022Z,6.30
2023-03-02T07:56:58.564Z,10.25
2023-03-02T07:59:25.884Z,8.15
2023-03-02T08:01:52.830Z,10.10
2023-03-02T08:04:19.804Z,11.10
2023-03-02T08:06:46.603Z,11.18
2023-03-02T08:09:15.171Z,10.60
2023-03-02T08:11:43.705Z,9.77
2023-03-02T08:14:10.633Z,11.57
2023-03-02T08:16:38.744Z,10.98
2023-03-02T08:19:05.434Z,9.75
2023-03-02T08:21:33.776Z,10.57
2023-03-02T08:24:00.999Z,7.68
2023-03-02T08:26:27.821Z,9.85
2023-03-02T08:28:54.580Z,9.68
2023-03-02T08:31:21.503Z,9.20
2023-03-02T08:33:48.366Z,9.50
2023-03-02T08:36:18.644Z,9.32
2023-03-02T08:38:46.641Z,7.65
2023-03-02T08:41:17.185Z,9.45
2023-03-02T08:43:44.011Z,10.10
2023-03-02T08:46:12.256Z,9.77
2023-03-02T08:48:39.699Z,8.60
2023-03-02T08:51:09.940Z,9.98
2023-03-02T08:53:39.540Z,8.52
2023-03-02T08:56:15.549Z,8.93
2023-03-02T08:58:42.120Z,11.55
2023-03-02T09:01:17.482Z,7.10
2023-03-02T09:03:44.305Z,9.35
2023-03-02T09:06:10.905Z,9.13
2023-03-02T09:08:37.674Z,7.63
2023-03-02T09:11:04.901Z,6.70
2023-03-02T09:13:31.841Z,9.50
2023-03-02T09:15:58.976Z,8.55
2023-03-02T09:18:25.920Z,9.05
2023-03-02T09:20:53.815Z,7.43
2023-03-02T09:23:20.752Z,7.20
2023-03-02T09:25:48.826Z,6.93
2023-03-02T09:28:16.912Z,8.27
2023-03-02T09:30:52.390Z,8.43
2023-03-02T09:33:20.006Z,7.43
2023-03-02T09:35:47.634Z,9.00
2023-03-02T09:38:18.420Z,9.05
2023-03-02T09:40:58.668Z,6.63
2023-03-02T09:43:37.755Z,9.43
2023-03-02T09:46:16.542Z,6.80
2023-03-02T09:49:31.123Z,9.43
2023-03-02T09:52:00.736Z,7.78
2023-03-02T09:54:28.815Z,6.90
2023-03-02T09:56:57.967Z,6.47
2023-03-02T09:59:28.949Z,6.78
2023-03-02T10:02:01.463Z,5.43
2023-03-02T10:04:42.827Z,7.88
2023-03-02T10:07:41.253Z,7.20
2023-03-02T10:10:29.266Z,6.95
2023-03-02T10:13:07.691Z,7.10
2023-03-02T10:15:42.684Z,11.10
2023-03-02T10:18:25.057Z,6.85
2023-03-02T10:21:11.945Z,7.05
2023-03-02T10:23:50.681Z,5.82
2023-03-02T10:26:42.737Z,6.83
2023-03-02T10:29:32.572Z,6.00
2023-03-02T10:32:06.501Z,6.20
2023-03-02T10:34:37.072Z,6.32
2023-03-02T10:37:12.584Z,5.22
2023-03-02T10:39:39.271Z,6.20
2023-03-02T10:42:11.524Z,5.47
2023-03-02T10:44:46.055Z,4.97
2023-03-02T10:47:27.750Z,7.93
2023-03-02T10:49:57.687Z,7.90
2023-03-02T10:52:27.787Z,8.02
2023-03-02T10:55:14.181Z,6.10
2023-03-02T10:57:43.379Z,5.57
2023-03-02T11:00:18.015Z,7.78
2023-03-02T11:03:03.619Z,6.70
2023-03-02T11:05:35.302Z,4.97
2023-03-02T11:08:08.874Z,5.20
2023-03-02T11:11:05.659Z,5.18
2023-03-02T11:13:37.714Z,4.50
2023-03-02T11:16:25.821Z,5.63
2023-03-02T11:19:03.763Z,5.03
2023-03-02T11:21:48.698Z,5.93
2023-03-02T11:24:28.503Z,5.03
2023-03-02T11:26:59.537Z,4.93
2023-03-02T11:29:46.039Z,6.53
2023-03-02T11:32:27.594Z,6.45
2023-03-02T11:35:05.499Z,5.90
2023-03-02T11:37:39.833Z,5.97
2023-03-02T11:40:21.559Z,6.85
2023-03-02T11:42:48.677Z,6.80
2023-03-02T11:45:16.395Z,6.57
2023-03-02T11:48:03.262Z,10.23
2023-03-02T11:50:34.664Z,9.35
2023-03-02T11:53:06.931Z,8.90
2023-03-02T11:55:42.934Z,7.95
2023-03-02T11:58:19.631Z,10.80
2023-03-02T12:00:48.768Z,8.75
2023-03-02T12:03:15.531Z,9.40
2023-03-02T12:05:46.716Z,9.60
2023-03-02T12:08:19.349Z,9.93
2023-03-02T12:11:03.601Z,11.18
2023-03-02T12:13:33.773Z,12.55
2023-03-02T12:16:01.013Z,14.40
2023-03-02T12:18:31.554Z,14.23
2023-03-02T12:21:16.322Z,12.82
2023-03-02T12:23:49.089Z,12.25
2023-03-02T12:26:22.199Z,13.35
2023-03-02T12:29:09.383Z,13.95
2023-03-02T12:31:52.785Z,13.30
2023-03-02T12:34:36.027Z,16.05
2023-03-02T12:37:44.302Z,15.45
2023-03-02T12:40:39.336Z,13.98
2023-03-02T12:43:27.130Z,14.20
2023-03-02T12:46:21.700Z,15.52
2023-03-02T12:49:16.263Z,15.82
2023-03-02T12:52:00.306Z,14.60
2023-03-02T12:54:30.320Z,15.32
2023-03-02T12:57:06.831Z,16.55
2023-03-02T12:59:36.042Z,18.88
2023-03-02T13:02:23.767Z,17.75
2023-03-02T13:05:00.237Z,21.13
2023-03-02T13:07:34.914Z,18.83
2023-03-02T13:10:07.155Z,17.35
2023-03-02T13:12:36.172Z,20.10
2023-03-02T13:15:02.894Z,18.55
2023-03-02T13:17:32.315Z,16.73
2023-03-02T13:22:28.260Z,17.92
2023-03-02T13:25:03.416Z,17.42
2023-03-02T13:27:30.946Z,22.25
2023-03-02T13:30:13.068Z,19.17
2023-03-02T13:32:43.190Z,20.45
2023-03-02T13:35:24.987Z,18.45
2023-03-02T13:38:00.257Z,18.88
2023-03-02T13:40:26.993Z,17.77
2023-03-02T13:42:54.193Z,18.02
2023-03-02T13:45:28.202Z,18.05
2023-03-02T13:47:58.038Z,21.27
2023-03-02T13:50:30.433Z,18.45
2023-03-02T13:53:01.621Z,18.50
2023-03-02T13:55:28.843Z,19.13
2023-03-02T13:57:56.187Z,18.20
2023-03-02T14:00:29.585Z,17.50
2023-03-02T14:02:56.232Z,18.25
2023-03-02T14:05:33.123Z,13.95
2023-03-02T14:08:00.936Z,17.58
2023-03-02T14:10:27.838Z,17.45
2023-03-02T14:13:06.092Z,16.52
2023-03-02T14:15:34.135Z,16.60
2023-03-02T14:18:01.004Z,16.20
2023-03-02T14:20:27.782Z,15.80
2023-03-02T14:22:54.576Z,15.85
2023-03-02T14:25:21.924Z,16.92
2023-03-02T14:27:48.643Z,15.52
2023-03-02T14:30:20.654Z,15.82
2023-03-02T14:32:47.913Z,16.60
2023-03-02T14:35:16.722Z,13.93
2023-03-02T14:37:48.380Z,16.65
2023-03-02T14:40:25.852Z,14.93
2023-03-02T14:42:53.182Z,13.25
2023-03-02T14:45:21.477Z,14.10
2023-03-02T14:47:49.133Z,13.02
2023-03-02T14:50:19.160Z,14.52
2023-03-02T14:52:49.664Z,11.95
2023-03-02T14:55:27.691Z,18.48
2023-03-02T14:58:00.911Z,14.20
2023-03-02T15:00:27.626Z,12.73
2023-03-02T15:02:54.889Z,12.18
2023-03-02T15:05:23.115Z,13.70
2023-03-02T15:07:50.622Z,12.15
2023-03-02T15:10:20.384Z,12.02
2023-03-02T15:12:47.615Z,11.45
2023-03-02T15:15:14.533Z,11.73
2023-03-02T15:17:41.714Z,12.93
2023-03-02T15:20:14.646Z,10.15
2023-03-02T15:22:41.599Z,12.52
2023-03-02T15:25:08.727Z,12.57
2023-03-02T15:27:35.481Z,11.82
2023-03-02T15:30:02.242Z,11.15
2023-03-02T15:32:28.909Z,11.98
2023-03-02T15:34:55.836Z,11.15
2023-03-02T15:37:22.504Z,11.43
2023-03-02T15:39:54.213Z,17.23
2023-03-02T15:42:21.100Z,11.48
2023-03-02T15:44:47.930Z,11.32
2023-03-02T15:47:14.979Z,12.00
2023-03-02T15:49:41.695Z,14.55
2023-03-02T15:52:09.592Z,11.77
2023-03-02T15:54:36.347Z,14.93
2023-03-02T15:57:03.313Z,17.63
2023-03-02T15:59:31.867Z,13.68
2023-03-02T16:02:02.517Z,12.63
2023-03-02T16:04:31.148Z,12.70
2023-03-02T16:06:58.503Z,14.18
2023-03-02T16:09:28.808Z,13.70
2023-03-02T16:11:56.236Z,11.35
2023-03-02T16:14:23.353Z,13.60
2023-03-02T16:16:51.140Z,10.90
2023-03-02T16:19:19.344Z,12.23
2023-03-02T16:21:47.608Z,12.90
2023-03-02T16:24:16.258Z,13.05
2023-03-02T16:26:43.338Z,12.33
2023-03-02T16:29:11.752Z,12.77
2023-03-02T16:31:39.532Z,12.13
2023-03-02T16:34:08.875Z,13.27
2023-03-02T16:36:40.306Z,11.05
2023-03-02T16:39:08.585Z,12.75
2023-03-02T16:41:36.850Z,13.00
2023-03-02T16:44:04.179Z,10.55
2023-03-02T16:46:36.143Z,10.75
2023-03-02T16:49:03.513Z,10.93
2023-03-02T16:51:30.259Z,11.23
2023-03-02T16:53:57.260Z,10.15
2023-03-02T16:56:24.240Z,12.73
2023-03-02T16:58:50.909Z,9.55
2023-03-02T17:01:19.939Z,10.07
2023-03-02T17:03:48.152Z,10.98
2023-03-02T17:06:18.767Z,9.88
2023-03-02T17:08:45.540Z,11.65
2023-03-02T17:11:12.458Z,12.10
2023-03-02T17:13:39.456Z,11.52
2023-03-02T17:16:06.533Z,10.13
2023-03-02T17:18:33.854Z,11.05
2023-03-02T17:21:01.395Z,9.15
2023-03-02T17:23:28.787Z,13.45
2023-03-02T17:25:56.049Z,10.18
2023-03-02T17:28:23.098Z,12.43
2023-03-02T17:30:49.992Z,10.55
2023-03-02T17:33:17.219Z,10.25
2023-03-02T17:35:44.128Z,8.88
2023-03-02T17:38:11.492Z,11.10
2023-03-02T17:40:38.307Z,9.13
2023-03-02T17:43:05.236Z,11.30
2023-03-02T17:45:32.024Z,8.88
2023-03-02T17:47:59.718Z,8.52
2023-03-02T17:50:30.980Z,12.35
2023-03-02T17:52:58.605Z,10.38
2023-03-02T17:55:25.833Z,11.20
2023-03-02T17:57:52.628Z,12.68
2023-03-02T18:00:22.113Z,10.18
2023-03-02T18:05:15.771Z,9.50
2023-03-02T18:07:42.514Z,10.23
2023-03-02T18:10:09.840Z,10.93
2023-03-02T18:12:36.654Z,12.57
2023-03-02T18:15:03.901Z,11.10
2023-03-02T18:17:30.456Z,9.85
2023-03-02T18:19:57.083Z,11.40
2023-03-02T18:22:23.923Z,12.02
2023-03-02T18:24:51.941Z,13.73
2023-03-02T18:27:19.129Z,11.60
2023-03-02T18:29:45.828Z,10.55
2023-03-02T18:32:13.023Z,12.30
2023-03-02T18:34:39.822Z,13.02
2023-03-02T18:37:07.029Z,13.27
2023-03-02T18:39:33.758Z,13.07
2023-03-02T18:42:00.593Z,12.40
2023-03-02T18:44:28.380Z,13.15
2023-03-02T18:46:55.780Z,10.48
2023-03-02T18:49:23.367Z,13.50
2023-03-02T18:51:50.149Z,12.15
2023-03-02T18:54:16.878Z,12.30
2023-03-02T18:56:43.721Z,11.45
2023-03-02T18:59:11.264Z,12.18
2023-03-02T19:01:38.128Z,11.35
2023-03-02T19:04:05.918Z,11.10
2023-03-02T19:06:33.613Z,14.68
2023-03-02T19:09:00.633Z,12.88
2023-03-02T19:11:27.433Z,13.00
2023-03-02T19:13:54.237Z,12.07
2023-03-02T19:16:20.969Z,12.07
2023-03-02T19:18:48.630Z,12.73
2023-03-02T19:21:15.881Z,12.43
2023-03-02T19:23:44.115Z,13.38
2023-03-02T19:26:12.265Z,11.18
2023-03-02T19:28:39.996Z,9.55
2023-03-02T19:31:08.964Z,10.52
2023-03-02T19:33:36.047Z,10.93
2023-03-02T19:36:03.539Z,11.73
2023-03-02T19:38:30.657Z,12.00
2023-03-02T19:40:59.747Z,10.68
2023-03-02T19:43:27.160Z,10.88
2023-03-02T19:45:54.239Z,11.95
2023-03-02T19:48:21.202Z,10.88
2023-03-02T19:50:48.055Z,11.13
2023-03-02T19:53:17.013Z,11.02
2023-03-02T19:55:44.760Z,10.07
2023-03-02T19:58:17.229Z,13.05
2023-03-02T20:00:44.672Z,10.80
2023-03-02T20:03:12.004Z,10.95
2023-03-02T20:05:38.737Z,9.52
2023-03-02T20:08:06.699Z,10.65
2023-03-02T20:10:43.499Z,10.73
2023-03-02T20:13:10.532Z,10.00
2023-03-02T20:15:40.792Z,10.63
2023-03-02T20:18:18.780Z,13.40
2023-03-02T20:20:47.243Z,12.50
2023-03-02T20:23:14.722Z,11.30
2023-03-02T20:25:41.995Z,10.95
2023-03-02T20:28:11.842Z,10.23
2023-03-02T20:30:43.435Z,9.60
2023-03-02T20:33:11.048Z,9.43
2023-03-02T20:35:41.050Z,9.27
2023-03-02T20:38:17.786Z,8.00
2023-03-02T20:40:45.793Z,10.27
2023-03-02T20:43:12.762Z,9.15
2023-03-02T20:45:39.942Z,9.65
2023-03-02T20:48:07.300Z,9.80
2023-03-02T20:50:36.332Z,9.77
2023-03-02T20:53:04.049Z,9.90
2023-03-02T20:55:31.064Z,8.10
2023-03-02T20:57:57.846Z,10.43
2023-03-02T21:00:27.199Z,9.52
2023-03-02T21:05:21.250Z,8.95
2023-03-02T21:07:49.420Z,9.23
2023-03-02T21:10:25.576Z,9.57
2023-03-02T21:12:52.286Z,9.70
2023-03-02T21:15:20.173Z,10.02
2023-03-02T21:17:47.261Z,8.38
2023-03-02T21:20:16.002Z,10.07
2023-03-02T21:22:45.517Z,9.15
2023-03-02T21:25:12.731Z,9.75
2023-03-02T21:27:40.289Z,7.80
2023-03-02T21:30:12.581Z,8.48
2023-03-02T21:32:39.238Z,8.15
2023-03-02T21:35:06.262Z,7.47
2023-03-02T21:37:32.953Z,7.15
2023-03-02T21:40:00.056Z,10.00
2023-03-02T21:42:27.209Z,8.52
2023-03-02T21:44:53.859Z,6.88
2023-03-02T21:47:20.776Z,7.60
2023-03-02T21:49:50.903Z,7.60
2023-03-02T21:52:17.533Z,9.40
2023-03-02T21:54:44.163Z,8.18
2023-03-02T21:57:11.034Z,7.50
2023-03-02T21:59:37.810Z,7.47
2023-03-02T22:02:05.021Z,6.65
2023-03-02T22:04:31.767Z,8.07
2023-03-02T22:06:58.459Z,6.15
2023-03-02T22:09:25.053Z,7.50
2023-03-02T22:11:52.018Z,7.13
2023-03-02T22:14:19.316Z,6.47
2023-03-02T22:16:48.040Z,6.40
2023-03-02T22:19:30.186Z,7.28
2023-03-02T22:22:01.320Z,7.40
2023-03-02T22:24:30.915Z,6.68
2023-03-02T22:29:47.145Z,7.13
2023-03-02T22:32:33.756Z,6.97
2023-03-02T22:35:18.699Z,6.07
2023-03-02T22:37:45.364Z,6.45
2023-03-02T22:40:30.383Z,5.55
2023-03-02T22:43:24.863Z,6.65
2023-03-02T22:45:52.940Z,6.05
2023-03-02T22:48:22.286Z,6.15
2023-03-02T22:50:50.008Z,6.95
2023-03-02T22:53:30.715Z,6.68
2023-03-02T22:56:02.317Z,7.47
2023-03-02T22:58:39.693Z,7.13
2023-03-02T23:01:21.118Z,6.82
2023-03-02T23:03:50.606Z,7.40
2023-03-02T23:08:49.380Z,5.45
2023-03-02T23:11:19.445Z,5.72
2023-03-02T23:13:46.878Z,8.75
2023-03-02T23:16:28.171Z,7.10
2023-03-02T23:18:57.355Z,6.80
2023-03-02T23:21:28.565Z,9.40
2023-03-02T23:23:56.083Z,6.78
2023-03-02T23:26:22.752Z,5.60
2023-03-02T23:28:50.865Z,6.60
2023-03-02T23:31:21.365Z,6.50
2023-03-02T23:33:48.531Z,7.05
2023-03-02T23:36:15.856Z,6.88
2023-03-02T23:38:42.793Z,7.00
2023-03-02T23:41:10.079Z,6.28
2023-03-02T23:43:37.049Z,6.57
2023-03-02T23:46:04.013Z,10.68
2023-03-02T23:48:30.827Z,5.68
2023-03-02T23:50:57.562Z,6.20
2023-03-02T23:53:24.415Z,7.20
2023-03-02T23:55:53.415Z,5.85
2023-03-02T23:58:20.721Z,6.10
